sensor_id;sensor_type;location;lat;lon;timestamp;P1;durP1;ratioP1;P2;durP2;ratioP2
72037;SDS011;59900;50.788;12.904;2022-10-26T00:01:24;9.23;;;2.60;;
72037;SDS011;59900;50.788;12.904;2022-10-26T00:03:50;6.53;;;2.40;;
72037;SDS011;59900;50.788;12.904;2022-10-26T00:06:19;5.50;;;2.53;;
72037;SDS011;59900;50.788;12.904;2022-10-26T00:08:46;8.25;;;3.17;;
72037;SDS011;59900;50.788;12.904;2022-10-26T00:11:12;6.88;;;2.75;;
72037;SDS011;59900;50.788;12.904;2022-10-26T00:13:38;6.87;;;2.80;;
72037;SDS011;59900;50.788;12.904;2022-10-26T00:16:12;6.85;;;2.72;;
72037;SDS011;59900;50.788;12.904;2022-10-26T00:18:39;5.38;;;2.53;;
72037;SDS011;59900;50.788;12.904;2022-10-26T00:21:05;8.53;;;2.70;;
72037;SDS011;59900;50.788;12.904;2022-10-26T00:23:32;8.95;;;3.00;;
72037;SDS011;59900;50.788;12.904;2022-10-26T00:25:57;5.60;;;2.70;;
72037;SDS011;59900;50.788;12.904;2022-10-26T00:28:23;6.75;;;2.55;;
72037;SDS011;59900;50.788;12.904;2022-10-26T00:30:48;4.93;;;2.47;;
72037;SDS011;59900;50.788;12.904;2022-10-26T00:33:13;7.13;;;2.90;;
72037;SDS011;59900;50.788;12.904;2022-10-26T00:35:39;6.43;;;2.73;;
72037;SDS011;59900;50.788;12.904;2022-10-26T00:38:04;6.17;;;2.60;;
72037;SDS011;59900;50.788;12.904;2022-10-26T00:40:29;8.43;;;3.07;;
72037;SDS011;59900;50.788;12.904;2022-10-26T00:42:55;6.67;;;2.63;;
72037;SDS011;59900;50.788;12.904;2022-10-26T00:45:24;6.72;;;2.70;;
72037;SDS011;59900;50.788;12.904;2022-10-26T00:47:52;6.80;;;2.85;;
72037;SDS011;59900;50.788;12.904;2022-10-26T00:50:36;8.10;;;3.47;;
72037;SDS011;59900;50.788;12.904;2022-10-26T00:53:05;7.85;;;2.92;;
72037;SDS011;59900;50.788;12.904;2022-10-26T00:55:40;6.13;;;2.97;;
72037;SDS011;59900;50.788;12.904;2022-10-26T00:58:09;6.32;;;2.70;;
72037;SDS011;59900;50.788;12.904;2022-10-26T01:00:35;6.28;;;2.85;;
72037;SDS011;59900;50.788;12.904;2022-10-26T01:03:03;5.78;;;2.65;;
72037;SDS011;59900;50.788;12.904;2022-10-26T01:05:30;7.68;;;2.53;;
72037;SDS011;59900;50.788;12.904;2022-10-26T01:07:57;7.53;;;2.80;;
72037;SDS011;59900;50.788;12.904;2022-10-26T01:10:23;5.60;;;2.67;;
72037;SDS011;59900;50.788;12.904;2022-10-26T01:12:49;6.63;;;2.38;;
72037;SDS011;59900;50.788;12.904;2022-10-26T01:15:15;6.67;;;2.30;;
72037;SDS011;59900;50.788;12.904;2022-10-26T01:17:54;9.80;;;2.63;;
72037;SDS011;59900;50.788;12.904;2022-10-26T01:20:38;5.73;;;2.40;;
72037;SDS011;59900;50.788;12.904;2022-10-26T01:31:40;9.13;;;2.60;;
72037;SDS011;59900;50.788;12.904;2022-10-26T01:34:17;6.80;;;2.20;;
72037;SDS011;59900;50.788;12.904;2022-10-26T01:36:52;4.68;;;1.83;;
72037;SDS011;59900;50.788;12.904;2022-10-26T01:39:26;6.72;;;2.33;;
72037;SDS011;59900;50.788;12.904;2022-10-26T01:42:00;4.60;;;1.90;;
72037;SDS011;59900;50.788;12.904;2022-10-26T01:44:33;5.45;;;1.95;;
72037;SDS011;59900;50.788;12.904;2022-10-26T01:47:05;6.90;;;2.50;;
72037;SDS011;59900;50.788;12.904;2022-10-26T01:49:33;8.20;;;2.22;;
72037;SDS011;59900;50.788;12.904;2022-10-26T01:52:03;5.63;;;2.38;;
72037;SDS011;59900;50.788;12.904;2022-10-26T01:54:28;6.17;;;2.10;;
72037;SDS011;59900;50.788;12.904;2022-10-26T01:56:56;5.05;;;2.10;;
72037;SDS011;59900;50.788;12.904;2022-10-26T02:02:36;5.15;;;2.28;;
72037;SDS011;59900;50.788;12.904;2022-10-26T02:13:20;5.20;;;2.17;;
72037;SDS011;59900;50.788;12.904;2022-10-26T02:15:59;4.80;;;2.40;;
72037;SDS011;59900;50.788;12.904;2022-10-26T02:18:30;5.73;;;2.43;;
72037;SDS011;59900;50.788;12.904;2022-10-26T02:21:08;5.40;;;2.38;;
72037;SDS011;59900;50.788;12.904;2022-10-26T02:23:40;5.70;;;2.50;;
72037;SDS011;59900;50.788;12.904;2022-10-26T02:26:08;5.00;;;2.72;;
72037;SDS011;59900;50.788;12.904;2022-10-26T02:28:36;5.82;;;2.40;;
72037;SDS011;59900;50.788;12.904;2022-10-26T02:31:05;5.70;;;2.23;;
72037;SDS011;59900;50.788;12.904;2022-10-26T02:33:38;6.30;;;2.58;;
72037;SDS011;59900;50.788;12.904;2022-10-26T02:36:08;5.93;;;2.55;;
72037;SDS011;59900;50.788;12.904;2022-10-26T02:38:37;8.25;;;2.58;;
72037;SDS011;59900;50.788;12.904;2022-10-26T02:41:04;5.80;;;2.55;;
72037;SDS011;59900;50.788;12.904;2022-10-26T02:43:32;6.97;;;2.37;;
72037;SDS011;59900;50.788;12.904;2022-10-26T02:46:04;6.43;;;2.40;;
72037;SDS011;59900;50.788;12.904;2022-10-26T02:48:32;5.50;;;2.80;;
72037;SDS011;59900;50.788;12.904;2022-10-26T02:51:14;5.73;;;2.70;;
72037;SDS011;59900;50.788;12.904;2022-10-26T02:56:31;4.88;;;2.70;;
72037;SDS011;59900;50.788;12.904;2022-10-26T02:59:04;6.18;;;2.65;;
72037;SDS011;59900;50.788;12.904;2022-10-26T03:01:33;7.47;;;2.70;;
72037;SDS011;59900;50.788;12.904;2022-10-26T03:03:59;8.77;;;3.15;;
72037;SDS011;59900;50.788;12.904;2022-10-26T03:06:25;6.47;;;2.80;;
72037;SDS011;59900;50.788;12.904;2022-10-26T03:08:51;9.10;;;2.83;;
72037;SDS011;59900;50.788;12.904;2022-10-26T03:11:17;6.88;;;2.80;;
72037;SDS011;59900;50.788;12.904;2022-10-26T03:13:42;5.20;;;2.60;;
72037;SDS011;59900;50.788;12.904;2022-10-26T03:16:08;9.70;;;3.50;;
72037;SDS011;59900;50.788;12.904;2022-10-26T03:18:34;6.72;;;2.92;;
72037;SDS011;59900;50.788;12.904;2022-10-26T03:20:59;6.43;;;2.90;;
72037;SDS011;59900;50.788;12.904;2022-10-26T03:23:24;5.27;;;2.87;;
72037;SDS011;59900;50.788;12.904;2022-10-26T03:25:50;7.80;;;3.23;;
72037;SDS011;59900;50.788;12.904;2022-10-26T03:28:15;5.60;;;2.67;;
72037;SDS011;59900;50.788;12.904;2022-10-26T03:30:40;5.80;;;3.10;;
72037;SDS011;59900;50.788;12.904;2022-10-26T03:33:06;8.45;;;3.10;;
72037;SDS011;59900;50.788;12.904;2022-10-26T03:35:31;8.67;;;3.27;;
72037;SDS011;59900;50.788;12.904;2022-10-26T03:37:56;7.30;;;3.10;;
72037;SDS011;59900;50.788;12.904;2022-10-26T03:40:22;9.20;;;3.43;;
72037;SDS011;59900;50.788;12.904;2022-10-26T03:42:47;5.40;;;2.53;;
72037;SDS011;59900;50.788;12.904;2022-10-26T03:45:12;6.07;;;2.90;;
72037;SDS011;59900;50.788;12.904;2022-10-26T03:47:41;7.17;;;3.00;;
72037;SDS011;59900;50.788;12.904;2022-10-26T03:50:08;7.20;;;2.67;;
72037;SDS011;59900;50.788;12.904;2022-10-26T03:52:34;7.25;;;2.75;;
72037;SDS011;59900;50.788;12.904;2022-10-26T03:54:59;5.70;;;2.70;;
72037;SDS011;59900;50.788;12.904;2022-10-26T03:57:24;6.37;;;3.13;;
72037;SDS011;59900;50.788;12.904;2022-10-26T03:59:49;9.67;;;2.73;;
72037;SDS011;59900;50.788;12.904;2022-10-26T04:02:15;7.00;;;2.63;;
72037;SDS011;59900;50.788;12.904;2022-10-26T04:04:40;7.53;;;2.40;;
72037;SDS011;59900;50.788;12.904;2022-10-26T04:07:05;7.00;;;2.97;;
72037;SDS011;59900;50.788;12.904;2022-10-26T04:09:30;5.73;;;2.23;;
72037;SDS011;59900;50.788;12.904;2022-10-26T04:11:56;5.60;;;1.90;;
72037;SDS011;59900;50.788;12.904;2022-10-26T04:14:21;5.63;;;2.67;;
72037;SDS011;59900;50.788;12.904;2022-10-26T04:16:46;4.57;;;2.10;;
72037;SDS011;59900;50.788;12.904;2022-10-26T04:19:11;4.97;;;1.95;;
72037;SDS011;59900;50.788;12.904;2022-10-26T04:21:37;4.10;;;2.20;;
72037;SDS011;59900;50.788;12.904;2022-10-26T04:24:02;4.60;;;1.97;;
72037;SDS011;59900;50.788;12.904;2022-10-26T04:26:27;5.00;;;2.10;;
72037;SDS011;59900;50.788;12.904;2022-10-26T04:28:53;6.57;;;2.33;;
72037;SDS011;59900;50.788;12.904;2022-10-26T04:31:18;5.67;;;2.40;;
72037;SDS011;59900;50.788;12.904;2022-10-26T04:33:44;7.90;;;2.53;;
72037;SDS011;59900;50.788;12.904;2022-10-26T04:36:09;8.07;;;2.10;;
72037;SDS011;59900;50.788;12.904;2022-10-26T04:38:34;5.83;;;1.80;;
72037;SDS011;59900;50.788;12.904;2022-10-26T04:41:00;6.60;;;2.30;;
72037;SDS011;59900;50.788;12.904;2022-10-26T04:43:25;6.17;;;1.90;;
72037;SDS011;59900;50.788;12.904;2022-10-26T04:45:54;5.50;;;1.93;;
72037;SDS011;59900;50.788;12.904;2022-10-26T04:48:20;5.85;;;1.92;;
72037;SDS011;59900;50.788;12.904;2022-10-26T04:50:45;4.83;;;2.10;;
72037;SDS011;59900;50.788;12.904;2022-10-26T04:53:11;4.97;;;2.20;;
72037;SDS011;59900;50.788;12.904;2022-10-26T04:55:36;6.33;;;2.60;;
72037;SDS011;59900;50.788;12.904;2022-10-26T04:58:02;5.77;;;2.90;;
72037;SDS011;59900;50.788;12.904;2022-10-26T05:00:28;7.50;;;2.88;;
72037;SDS011;59900;50.788;12.904;2022-10-26T05:02:58;7.65;;;3.10;;
72037;SDS011;59900;50.788;12.904;2022-10-26T05:05:24;5.93;;;2.80;;
72037;SDS011;59900;50.788;12.904;2022-10-26T05:07:56;7.70;;;2.57;;
72037;SDS011;59900;50.788;12.904;2022-10-26T05:10:22;8.48;;;3.35;;
72037;SDS011;59900;50.788;12.904;2022-10-26T05:12:51;7.03;;;3.40;;
72037;SDS011;59900;50.788;12.904;2022-10-26T05:15:17;9.32;;;3.78;;
72037;SDS011;59900;50.788;12.904;2022-10-26T05:17:42;11.03;;;3.40;;
72037;SDS011;59900;50.788;12.904;2022-10-26T05:20:08;7.80;;;3.60;;
72037;SDS011;59900;50.788;12.904;2022-10-26T05:22:37;7.22;;;3.38;;
72037;SDS011;59900;50.788;12.904;2022-10-26T05:25:02;6.93;;;3.50;;
72037;SDS011;59900;50.788;12.904;2022-10-26T05:27:28;9.38;;;3.35;;
72037;SDS011;59900;50.788;12.904;2022-10-26T05:29:53;8.60;;;3.73;;
72037;SDS011;59900;50.788;12.904;2022-10-26T05:32:18;7.57;;;3.73;;
72037;SDS011;59900;50.788;12.904;2022-10-26T05:34:44;8.47;;;3.30;;
72037;SDS011;59900;50.788;12.904;2022-10-26T05:37:09;8.57;;;3.03;;
72037;SDS011;59900;50.788;12.904;2022-10-26T05:39:34;10.77;;;3.80;;
72037;SDS011;59900;50.788;12.904;2022-10-26T05:41:59;7.77;;;2.90;;
72037;SDS011;59900;50.788;12.904;2022-10-26T05:44:25;7.90;;;3.50;;
72037;SDS011;59900;50.788;12.904;2022-10-26T05:46:51;8.05;;;3.25;;
72037;SDS011;59900;50.788;12.904;2022-10-26T05:49:16;7.20;;;3.60;;
72037;SDS011;59900;50.788;12.904;2022-10-26T05:51:41;7.47;;;3.37;;
72037;SDS011;59900;50.788;12.904;2022-10-26T05:54:07;8.13;;;3.53;;
72037;SDS011;59900;50.788;12.904;2022-10-26T05:56:36;6.87;;;3.30;;
72037;SDS011;59900;50.788;12.904;2022-10-26T05:59:12;7.55;;;3.50;;
72037;SDS011;59900;50.788;12.904;2022-10-26T06:07:02;9.63;;;3.20;;
72037;SDS011;59900;50.788;12.904;2022-10-26T06:09:33;6.93;;;3.07;;
72037;SDS011;59900;50.788;12.904;2022-10-26T06:11:58;7.63;;;3.10;;
72037;SDS011;59900;50.788;12.904;2022-10-26T06:14:25;6.70;;;2.97;;
72037;SDS011;59900;50.788;12.904;2022-10-26T06:16:58;5.90;;;2.80;;
72037;SDS011;59900;50.788;12.904;2022-10-26T06:24:56;8.52;;;3.65;;
72037;SDS011;59900;50.788;12.904;2022-10-26T06:30:10;9.93;;;3.42;;
72037;SDS011;59900;50.788;12.904;2022-10-26T06:32:39;6.80;;;2.92;;
72037;SDS011;59900;50.788;12.904;2022-10-26T06:37:43;8.85;;;3.28;;
72037;SDS011;59900;50.788;12.904;2022-10-26T06:40:10;7.30;;;3.30;;
72037;SDS011;59900;50.788;12.904;2022-10-26T06:42:38;6.97;;;3.13;;
72037;SDS011;59900;50.788;12.904;2022-10-26T06:45:04;10.07;;;3.33;;
72037;SDS011;59900;50.788;12.904;2022-10-26T06:47:32;7.55;;;3.30;;
72037;SDS011;59900;50.788;12.904;2022-10-26T06:50:05;7.40;;;3.33;;
72037;SDS011;59900;50.788;12.904;2022-10-26T06:52:47;7.17;;;3.33;;
72037;SDS011;59900;50.788;12.904;2022-10-26T06:55:21;8.10;;;2.90;;
72037;SDS011;59900;50.788;12.904;2022-10-26T06:57:47;7.43;;;2.80;;
72037;SDS011;59900;50.788;12.904;2022-10-26T07:00:15;6.93;;;3.08;;
72037;SDS011;59900;50.788;12.904;2022-10-26T07:02:44;6.35;;;3.53;;
72037;SDS011;59900;50.788;12.904;2022-10-26T07:05:09;9.13;;;4.40;;
72037;SDS011;59900;50.788;12.904;2022-10-26T07:07:38;8.10;;;4.10;;
72037;SDS011;59900;50.788;12.904;2022-10-26T07:10:06;10.27;;;3.85;;
72037;SDS011;59900;50.788;12.904;2022-10-26T07:12:31;10.87;;;3.87;;
72037;SDS011;59900;50.788;12.904;2022-10-26T07:14:57;8.27;;;3.43;;
72037;SDS011;59900;50.788;12.904;2022-10-26T07:17:22;10.60;;;3.67;;
72037;SDS011;59900;50.788;12.904;2022-10-26T07:19:48;8.43;;;3.70;;
72037;SDS011;59900;50.788;12.904;2022-10-26T07:22:13;9.10;;;4.13;;
72037;SDS011;59900;50.788;12.904;2022-10-26T07:24:38;8.07;;;3.57;;
72037;SDS011;59900;50.788;12.904;2022-10-26T07:27:04;9.82;;;4.00;;
72037;SDS011;59900;50.788;12.904;2022-10-26T07:29:29;9.33;;;3.93;;
72037;SDS011;59900;50.788;12.904;2022-10-26T07:31:55;8.23;;;4.10;;
72037;SDS011;59900;50.788;12.904;2022-10-26T07:34:20;8.03;;;3.97;;
72037;SDS011;59900;50.788;12.904;2022-10-26T07:36:45;10.50;;;3.70;;
72037;SDS011;59900;50.788;12.904;2022-10-26T07:39:11;10.10;;;3.80;;
72037;SDS011;59900;50.788;12.904;2022-10-26T07:41:36;8.10;;;3.77;;
72037;SDS011;59900;50.788;12.904;2022-10-26T07:44:01;5.73;;;2.40;;
72037;SDS011;59900;50.788;12.904;2022-10-26T07:46:27;10.37;;;3.83;;
72037;SDS011;59900;50.788;12.904;2022-10-26T07:48:53;14.05;;;4.07;;
72037;SDS011;59900;50.788;12.904;2022-10-26T07:51:18;6.20;;;2.83;;
72037;SDS011;59900;50.788;12.904;2022-10-26T07:53:44;8.65;;;2.78;;
72037;SDS011;59900;50.788;12.904;2022-10-26T07:56:10;10.07;;;3.80;;
72037;SDS011;59900;50.788;12.904;2022-10-26T07:58:36;7.20;;;2.65;;
72037;SDS011;59900;50.788;12.904;2022-10-26T08:01:05;7.65;;;3.60;;
72037;SDS011;59900;50.788;12.904;2022-10-26T08:03:32;6.80;;;3.30;;
72037;SDS011;59900;50.788;12.904;2022-10-26T08:05:57;8.57;;;3.40;;
72037;SDS011;59900;50.788;12.904;2022-10-26T08:08:22;9.40;;;3.30;;
72037;SDS011;59900;50.788;12.904;2022-10-26T08:10:48;10.70;;;3.40;;
72037;SDS011;59900;50.788;12.904;2022-10-26T08:13:13;8.73;;;3.47;;
72037;SDS011;59900;50.788;12.904;2022-10-26T08:15:39;8.30;;;3.03;;
72037;SDS011;59900;50.788;12.904;2022-10-26T08:18:05;5.43;;;2.33;;
72037;SDS011;59900;50.788;12.904;2022-10-26T08:20:31;10.90;;;3.20;;
72037;SDS011;59900;50.788;12.904;2022-10-26T08:22:57;10.20;;;2.70;;
72037;SDS011;59900;50.788;12.904;2022-10-26T08:25:22;6.22;;;2.00;;
72037;SDS011;59900;50.788;12.904;2022-10-26T08:27:48;6.73;;;1.40;;
72037;SDS011;59900;50.788;12.904;2022-10-26T08:30:13;5.30;;;1.60;;
72037;SDS011;59900;50.788;12.904;2022-10-26T08:32:39;7.90;;;1.85;;
72037;SDS011;59900;50.788;12.904;2022-10-26T08:35:06;3.43;;;1.60;;
72037;SDS011;59900;50.788;12.904;2022-10-26T08:37:32;10.23;;;1.73;;
72037;SDS011;59900;50.788;12.904;2022-10-26T08:39:57;4.30;;;1.67;;
72037;SDS011;59900;50.788;12.904;2022-10-26T08:42:24;5.07;;;1.63;;
72037;SDS011;59900;50.788;12.904;2022-10-26T08:44:58;4.45;;;1.60;;
72037;SDS011;59900;50.788;12.904;2022-10-26T08:47:29;5.93;;;1.45;;
72037;SDS011;59900;50.788;12.904;2022-10-26T08:50:34;5.28;;;1.60;;
72037;SDS011;59900;50.788;12.904;2022-10-26T08:52:56;4.50;;;1.37;;
72037;SDS011;59900;50.788;12.904;2022-10-26T08:55:30;4.10;;;1.30;;
72037;SDS011;59900;50.788;12.904;2022-10-26T08:58:02;3.25;;;1.60;;
72037;SDS011;59900;50.788;12.904;2022-10-26T09:00:31;5.68;;;1.45;;
72037;SDS011;59900;50.788;12.904;2022-10-26T09:02:57;4.37;;;1.40;;
72037;SDS011;59900;50.788;12.904;2022-10-26T09:05:25;4.97;;;1.60;;
72037;SDS011;59900;50.788;12.904;2022-10-26T09:08:05;4.10;;;1.77;;
72037;SDS011;59900;50.788;12.904;2022-10-26T09:11:03;3.47;;;1.55;;
72037;SDS011;59900;50.788;12.904;2022-10-26T09:13:44;4.53;;;1.58;;
72037;SDS011;59900;50.788;12.904;2022-10-26T09:19:01;4.37;;;1.50;;
72037;SDS011;59900;50.788;12.904;2022-10-26T09:21:46;4.75;;;1.50;;
72037;SDS011;59900;50.788;12.904;2022-10-26T09:24:29;5.38;;;1.80;;
72037;SDS011;59900;50.788;12.904;2022-10-26T09:26:57;4.00;;;1.58;;
72037;SDS011;59900;50.788;12.904;2022-10-26T09:29:35;3.80;;;1.85;;
72037;SDS011;59900;50.788;12.904;2022-10-26T09:32:05;2.90;;;1.40;;
72037;SDS011;59900;50.788;12.904;2022-10-26T09:34:38;4.15;;;1.60;;
72037;SDS011;59900;50.788;12.904;2022-10-26T09:47:49;3.50;;;1.48;;
72037;SDS011;59900;50.788;12.904;2022-10-26T09:50:20;7.22;;;1.60;;
72037;SDS011;59900;50.788;12.904;2022-10-26T09:52:49;4.22;;;1.52;;
72037;SDS011;59900;50.788;12.904;2022-10-26T09:55:14;3.80;;;1.50;;
72037;SDS011;59900;50.788;12.904;2022-10-26T09:57:43;4.03;;;1.70;;
72037;SDS011;59900;50.788;12.904;2022-10-26T10:00:14;4.07;;;1.50;;
72037;SDS011;59900;50.788;12.904;2022-10-26T10:02:41;3.00;;;1.33;;
72037;SDS011;59900;50.788;12.904;2022-10-26T10:05:21;3.10;;;1.30;;
72037;SDS011;59900;50.788;12.904;2022-10-26T10:07:51;3.80;;;1.33;;
72037;SDS011;59900;50.788;12.904;2022-10-26T10:10:54;5.95;;;1.40;;
72037;SDS011;59900;50.788;12.904;2022-10-26T10:13:21;3.22;;;1.40;;
72037;SDS011;59900;50.788;12.904;2022-10-26T10:15:52;3.85;;;1.58;;
72037;SDS011;59900;50.788;12.904;2022-10-26T10:18:19;3.53;;;1.30;;
72037;SDS011;59900;50.788;12.904;2022-10-26T10:20:50;2.95;;;1.55;;
72037;SDS011;59900;50.788;12.904;2022-10-26T10:23:24;5.40;;;1.70;;
72037;SDS011;59900;50.788;12.904;2022-10-26T10:25:57;3.70;;;1.20;;
72037;SDS011;59900;50.788;12.904;2022-10-26T10:28:24;3.50;;;1.30;;
72037;SDS011;59900;50.788;12.904;2022-10-26T10:30:58;3.50;;;1.20;;
72037;SDS011;59900;50.788;12.904;2022-10-26T10:33:35;7.13;;;1.55;;
72037;SDS011;59900;50.788;12.904;2022-10-26T10:36:09;4.10;;;1.70;;
72037;SDS011;59900;50.788;12.904;2022-10-26T10:38:39;3.20;;;1.30;;
72037;SDS011;59900;50.788;12.904;2022-10-26T10:41:13;3.70;;;1.23;;
72037;SDS011;59900;50.788;12.904;2022-10-26T10:46:30;5.10;;;1.40;;
72037;SDS011;59900;50.788;12.904;2022-10-26T10:49:05;4.00;;;1.40;;
72037;SDS011;59900;50.788;12.904;2022-10-26T10:51:42;5.72;;;1.08;;
72037;SDS011;59900;50.788;12.904;2022-10-26T10:54:17;5.85;;;1.75;;
72037;SDS011;59900;50.788;12.904;2022-10-26T10:56:48;3.17;;;1.45;;
72037;SDS011;59900;50.788;12.904;2022-10-26T11:04:45;3.00;;;1.30;;
72037;SDS011;59900;50.788;12.904;2022-10-26T11:07:23;3.88;;;1.45;;
72037;SDS011;59900;50.788;12.904;2022-10-26T11:09:51;3.50;;;1.40;;
72037;SDS011;59900;50.788;12.904;2022-10-26T11:12:23;4.63;;;1.60;;
72037;SDS011;59900;50.788;12.904;2022-10-26T11:14:57;4.70;;;1.70;;
72037;SDS011;59900;50.788;12.904;2022-10-26T11:17:32;4.10;;;1.88;;
72037;SDS011;59900;50.788;12.904;2022-10-26T11:20:04;5.80;;;1.70;;
72037;SDS011;59900;50.788;12.904;2022-10-26T11:22:37;6.65;;;1.60;;
72037;SDS011;59900;50.788;12.904;2022-10-26T11:25:15;6.43;;;1.70;;
72037;SDS011;59900;50.788;12.904;2022-10-26T11:27:50;3.60;;;1.60;;
72037;SDS011;59900;50.788;12.904;2022-10-26T11:30:20;3.33;;;1.65;;
72037;SDS011;59900;50.788;12.904;2022-10-26T11:33:02;4.75;;;1.50;;
72037;SDS011;59900;50.788;12.904;2022-10-26T11:35:36;5.55;;;1.52;;
72037;SDS011;59900;50.788;12.904;2022-10-26T11:38:09;5.18;;;1.70;;
72037;SDS011;59900;50.788;12.904;2022-10-26T11:40:44;7.20;;;1.87;;
72037;SDS011;59900;50.788;12.904;2022-10-26T11:43:21;6.40;;;1.98;;
72037;SDS011;59900;50.788;12.904;2022-10-26T11:46:11;5.80;;;2.38;;
72037;SDS011;59900;50.788;12.904;2022-10-26T11:53:52;6.87;;;2.33;;
72037;SDS011;59900;50.788;12.904;2022-10-26T11:56:26;6.55;;;2.78;;
72037;SDS011;59900;50.788;12.904;2022-10-26T11:58:56;6.90;;;2.50;;
72037;SDS011;59900;50.788;12.904;2022-10-26T12:01:23;5.72;;;2.30;;
72037;SDS011;59900;50.788;12.904;2022-10-26T12:03:49;6.78;;;2.20;;
72037;SDS011;59900;50.788;12.904;2022-10-26T12:06:19;3.50;;;1.50;;
72037;SDS011;59900;50.788;12.904;2022-10-26T12:09:00;4.55;;;1.48;;
72037;SDS011;59900;50.788;12.904;2022-10-26T12:13:58;4.32;;;1.60;;
72037;SDS011;59900;50.788;12.904;2022-10-26T12:16:49;4.95;;;1.23;;
72037;SDS011;59900;50.788;12.904;2022-10-26T12:19:23;3.13;;;1.10;;
72037;SDS011;59900;50.788;12.904;2022-10-26T12:21:52;6.72;;;1.30;;
72037;SDS011;59900;50.788;12.904;2022-10-26T12:27:00;10.50;;;1.33;;
72037;SDS011;59900;50.788;12.904;2022-10-26T12:29:28;2.22;;;1.00;;
72037;SDS011;59900;50.788;12.904;2022-10-26T12:31:54;4.40;;;0.90;;
72037;SDS011;59900;50.788;12.904;2022-10-26T12:34:23;4.32;;;0.95;;
72037;SDS011;59900;50.788;12.904;2022-10-26T12:37:18;2.40;;;1.10;;
72037;SDS011;59900;50.788;12.904;2022-10-26T12:45:39;2.30;;;1.47;;
72037;SDS011;59900;50.788;12.904;2022-10-26T12:48:24;4.47;;;1.40;;
72037;SDS011;59900;50.788;12.904;2022-10-26T12:56:56;2.50;;;1.33;;
72037;SDS011;59900;50.788;12.904;2022-10-26T13:04:50;2.90;;;1.40;;
72037;SDS011;59900;50.788;12.904;2022-10-26T13:07:38;3.78;;;1.20;;
72037;SDS011;59900;50.788;12.904;2022-10-26T13:12:38;2.73;;;1.40;;
72037;SDS011;59900;50.788;12.904;2022-10-26T13:15:54;4.82;;;1.20;;
72037;SDS011;59900;50.788;12.904;2022-10-26T13:20:29;4.80;;;1.37;;
72037;SDS011;59900;50.788;12.904;2022-10-26T13:22:55;4.20;;;1.40;;
72037;SDS011;59900;50.788;12.904;2022-10-26T13:25:25;2.87;;;0.93;;
72037;SDS011;59900;50.788;12.904;2022-10-26T13:28:05;4.18;;;1.27;;
72037;SDS011;59900;50.788;12.904;2022-10-26T13:30:50;3.42;;;1.25;;
72037;SDS011;59900;50.788;12.904;2022-10-26T13:33:23;6.13;;;1.40;;
72037;SDS011;59900;50.788;12.904;2022-10-26T13:35:54;4.70;;;1.38;;
72037;SDS011;59900;50.788;12.904;2022-10-26T13:38:22;5.55;;;1.40;;
72037;SDS011;59900;50.788;12.904;2022-10-26T13:40:56;4.50;;;1.53;;
72037;SDS011;59900;50.788;12.904;2022-10-26T13:43:28;6.45;;;1.60;;
72037;SDS011;59900;50.788;12.904;2022-10-26T13:45:54;6.47;;;2.15;;
72037;SDS011;59900;50.788;12.904;2022-10-26T13:48:25;6.45;;;1.60;;
72037;SDS011;59900;50.788;12.904;2022-10-26T13:50:59;4.87;;;1.50;;
72037;SDS011;59900;50.788;12.904;2022-10-26T13:53:31;5.03;;;1.77;;
72037;SDS011;59900;50.788;12.904;2022-10-26T13:56:03;3.97;;;1.35;;
72037;SDS011;59900;50.788;12.904;2022-10-26T13:58:40;5.50;;;1.40;;
72037;SDS011;59900;50.788;12.904;2022-10-26T14:01:14;5.53;;;1.90;;
72037;SDS011;59900;50.788;12.904;2022-10-26T14:03:42;5.80;;;2.37;;
72037;SDS011;59900;50.788;12.904;2022-10-26T14:08:49;6.32;;;1.65;;
72037;SDS011;59900;50.788;12.904;2022-10-26T14:11:20;4.07;;;1.65;;
72037;SDS011;59900;50.788;12.904;2022-10-26T14:13:51;3.80;;;1.80;;
72037;SDS011;59900;50.788;12.904;2022-10-26T14:16:17;4.80;;;1.80;;
72037;SDS011;59900;50.788;12.904;2022-10-26T14:18:44;5.07;;;2.00;;
72037;SDS011;59900;50.788;12.904;2022-10-26T14:21:16;3.58;;;1.55;;
72037;SDS011;59900;50.788;12.904;2022-10-26T14:23:48;4.70;;;1.60;;
72037;SDS011;59900;50.788;12.904;2022-10-26T14:26:20;5.50;;;1.83;;
72037;SDS011;59900;50.788;12.904;2022-10-26T14:28:55;4.95;;;2.00;;
72037;SDS011;59900;50.788;12.904;2022-10-26T14:31:27;3.67;;;1.88;;
72037;SDS011;59900;50.788;12.904;2022-10-26T14:33:55;3.80;;;1.70;;
72037;SDS011;59900;50.788;12.904;2022-10-26T14:39:15;3.95;;;1.83;;
72037;SDS011;59900;50.788;12.904;2022-10-26T14:41:52;4.60;;;1.60;;
72037;SDS011;59900;50.788;12.904;2022-10-26T14:44:20;6.30;;;2.00;;
72037;SDS011;59900;50.788;12.904;2022-10-26T14:46:48;3.35;;;1.70;;
72037;SDS011;59900;50.788;12.904;2022-10-26T14:49:24;5.80;;;2.00;;
72037;SDS011;59900;50.788;12.904;2022-10-26T14:51:59;5.43;;;1.70;;
72037;SDS011;59900;50.788;12.904;2022-10-26T14:54:28;6.03;;;2.30;;
72037;SDS011;59900;50.788;12.904;2022-10-26T14:56:54;5.83;;;1.70;;
72037;SDS011;59900;50.788;12.904;2022-10-26T14:59:21;3.95;;;1.75;;
72037;SDS011;59900;50.788;12.904;2022-10-26T15:01:53;10.38;;;1.90;;
72037;SDS011;59900;50.788;12.904;2022-10-26T15:04:27;6.18;;;1.85;;
72037;SDS011;59900;50.788;12.904;2022-10-26T15:07:32;4.60;;;1.83;;
72037;SDS011;59900;50.788;12.904;2022-10-26T15:09:49;8.03;;;2.33;;
72037;SDS011;59900;50.788;12.904;2022-10-26T15:12:32;4.65;;;1.70;;
72037;SDS011;59900;50.788;12.904;2022-10-26T15:17:40;4.72;;;1.60;;
72037;SDS011;59900;50.788;12.904;2022-10-26T15:20:13;6.55;;;2.40;;
72037;SDS011;59900;50.788;12.904;2022-10-26T15:22:41;7.23;;;2.10;;
72037;SDS011;59900;50.788;12.904;2022-10-26T15:25:15;5.75;;;1.90;;
72037;SDS011;59900;50.788;12.904;2022-10-26T15:27:45;5.93;;;2.00;;
72037;SDS011;59900;50.788;12.904;2022-10-26T15:30:16;6.95;;;2.13;;
72037;SDS011;59900;50.788;12.904;2022-10-26T15:32:47;5.55;;;2.10;;
72037;SDS011;59900;50.788;12.904;2022-10-26T15:35:26;7.70;;;2.40;;
72037;SDS011;59900;50.788;12.904;2022-10-26T15:37:53;5.47;;;2.03;;
72037;SDS011;59900;50.788;12.904;2022-10-26T15:40:20;7.10;;;2.80;;
72037;SDS011;59900;50.788;12.904;2022-10-26T15:42:50;8.43;;;2.60;;
72037;SDS011;59900;50.788;12.904;2022-10-26T15:45:18;6.67;;;3.10;;
72037;SDS011;59900;50.788;12.904;2022-10-26T15:47:49;8.45;;;2.83;;
72037;SDS011;59900;50.788;12.904;2022-10-26T15:50:17;4.50;;;2.20;;
72037;SDS011;59900;50.788;12.904;2022-10-26T15:52:47;6.93;;;2.38;;
72037;SDS011;59900;50.788;12.904;2022-10-26T15:55:12;5.57;;;2.72;;
72037;SDS011;59900;50.788;12.904;2022-10-26T15:57:38;8.80;;;3.00;;
72037;SDS011;59900;50.788;12.904;2022-10-26T16:00:04;7.13;;;3.20;;
72037;SDS011;59900;50.788;12.904;2022-10-26T16:02:32;6.25;;;2.40;;
72037;SDS011;59900;50.788;12.904;2022-10-26T16:04:58;8.63;;;2.53;;
72037;SDS011;59900;50.788;12.904;2022-10-26T16:07:24;7.53;;;2.90;;
72037;SDS011;59900;50.788;12.904;2022-10-26T16:09:50;6.95;;;2.85;;
72037;SDS011;59900;50.788;12.904;2022-10-26T16:12:16;6.83;;;2.40;;
72037;SDS011;59900;50.788;12.904;2022-10-26T16:14:41;8.07;;;2.97;;
72037;SDS011;59900;50.788;12.904;2022-10-26T16:17:07;8.67;;;2.40;;
72037;SDS011;59900;50.788;12.904;2022-10-26T16:19:32;6.53;;;2.70;;
72037;SDS011;59900;50.788;12.904;2022-10-26T16:21:58;7.20;;;2.55;;
72037;SDS011;59900;50.788;12.904;2022-10-26T16:24:24;7.82;;;2.53;;
72037;SDS011;59900;50.788;12.904;2022-10-26T16:26:50;8.27;;;2.65;;
72037;SDS011;59900;50.788;12.904;2022-10-26T16:29:15;8.23;;;3.07;;